createdAt,value
2022-08-17T00:00:49.594Z,100111.23
2022-08-17T00:04:20.282Z,100107.33
2022-08-17T00:07:48.261Z,100106.98
2022-08-17T00:11:19.845Z,100108.09
2022-08-17T00:14:47.165Z,100113.27
2022-08-17T00:19:00.918Z,100114.65
2022-08-17T00:22:33.912Z,100118.19
2022-08-17T00:25:52.282Z,100114.45
2022-08-17T00:29:19.615Z,100115.15
2022-08-17T00:33:12.228Z,100121.55
2022-08-17T00:36:37.409Z,100116.17
2022-08-17T00:40:05.612Z,100115.47
2022-08-17T00:43:42.224Z,100113.70
2022-08-17T00:47:10.029Z,100113.92
2022-08-17T00:50:40.215Z,100114.47
2022-08-17T00:54:12.737Z,100115.45
2022-08-17T00:57:44.617Z,100115.70
2022-08-17T01:01:21.678Z,100108.95
2022-08-17T01:04:54.310Z,100110.45
2022-08-17T01:08:25.715Z,100112.52
2022-08-17T01:11:53.737Z,100113.50
2022-08-17T01:15:20.977Z,100111.84
2022-08-17T01:18:50.588Z,100112.70
2022-08-17T01:22:24.491Z,100117.79
2022-08-17T01:25:54.234Z,100114.45
2022-08-17T01:29:23.466Z,100114.84
2022-08-17T01:32:50.504Z,100121.27
2022-08-17T01:36:18.597Z,100120.22
2022-08-17T01:39:50.608Z,100122.14
2022-08-17T01:43:23.150Z,100119.73
2022-08-17T01:46:50.527Z,100122.05
2022-08-17T01:50:23.705Z,100120.77
2022-08-17T01:53:53.547Z,100114.30
2022-08-17T01:57:20.953Z,100115.73
2022-08-17T02:01:01.082Z,100114.87
2022-08-17T02:04:28.667Z,100114.89
2022-08-17T02:08:00.385Z,100114.26
2022-08-17T02:11:27.735Z,100113.47
2022-08-17T02:14:55.599Z,100116.95
2022-08-17T02:18:22.951Z,100116.20
2022-08-17T02:21:52.881Z,100109.31
2022-08-17T02:25:22.127Z,100109.64
2022-08-17T02:28:51.232Z,100108.85
2022-08-17T02:32:28.360Z,100105.69
2022-08-17T02:35:55.925Z,100102.11
2022-08-17T02:39:23.079Z,100103.13
2022-08-17T02:42:50.524Z,100104.52
2022-08-17T02:46:19.974Z,100112.80
2022-08-17T02:49:54.231Z,100111.67
2022-08-17T02:53:22.940Z,100107.58
2022-08-17T02:56:56.858Z,100108.02
2022-08-17T03:00:29.241Z,100108.66
2022-08-17T03:03:57.581Z,100108.16
2022-08-17T03:07:24.547Z,100113.41
2022-08-17T03:10:51.751Z,100116.14
2022-08-17T03:14:19.899Z,100117.81
2022-08-17T03:18:01.980Z,100121.86
2022-08-17T03:21:29.183Z,100117.09
2022-08-17T03:24:56.557Z,100117.84
2022-08-17T03:28:25.207Z,100117.28
2022-08-17T03:31:52.775Z,100122.56
2022-08-17T03:35:22.493Z,100122.44
2022-08-17T03:38:49.820Z,100123.85
2022-08-17T03:42:31.962Z,100125.82
2022-08-17T03:46:28.178Z,100127.61
2022-08-17T03:50:33.904Z,100136.30
2022-08-17T03:54:19.819Z,100136.41
2022-08-17T03:57:49.262Z,100135.95
2022-08-17T04:01:18.245Z,100137.58
2022-08-17T04:04:46.388Z,100138.34
2022-08-17T04:08:14.744Z,100142.70
2022-08-17T04:11:42.298Z,100149.48
2022-08-17T04:15:13.331Z,100149.79
2022-08-17T04:18:40.154Z,100152.27
2022-08-17T04:22:07.753Z,100154.15
2022-08-17T04:25:37.081Z,100159.33
2022-08-17T04:29:04.217Z,100161.94
2022-08-17T04:33:03.902Z,100165.71
2022-08-17T04:36:19.963Z,100169.45
2022-08-17T04:40:06.826Z,100163.80
2022-08-17T04:43:35.737Z,100165.48
2022-08-17T04:47:03.166Z,100164.44
2022-08-17T04:50:30.365Z,100168.56
2022-08-17T04:54:00.882Z,100171.02
2022-08-17T04:57:28.245Z,100170.91
2022-08-17T05:00:57.114Z,100180.88
2022-08-17T05:04:34.522Z,100181.29
2022-08-17T05:08:05.784Z,100183.67
2022-08-17T05:11:34.307Z,100181.25
2022-08-17T05:15:01.852Z,100181.89
2022-08-17T05:18:30.958Z,100174.34
2022-08-17T05:21:58.267Z,100177.88
2022-08-17T05:25:29.111Z,100176.82
2022-08-17T05:29:02.743Z,100180.34
2022-08-17T05:32:38.951Z,100179.33
2022-08-17T05:36:11.113Z,100181.52
2022-08-17T05:39:58.788Z,100180.77
2022-08-17T05:43:28.107Z,100178.96
2022-08-17T05:46:56.819Z,100186.46
2022-08-17T05:50:29.810Z,100192.77
2022-08-17T05:54:08.841Z,100189.61
2022-08-17T05:58:02.954Z,100195.10
2022-08-17T06:01:41.130Z,100191.97
2022-08-17T06:05:26.047Z,100188.98
2022-08-17T06:08:59.070Z,100194.25
2022-08-17T06:12:42.611Z,100194.10
2022-08-17T06:16:25.882Z,100199.42
2022-08-17T06:20:04.768Z,100199.38
2022-08-17T06:23:36.176Z,100200.63
2022-08-17T06:27:09.438Z,100196.42
2022-08-17T06:30:59.219Z,100195.24
2022-08-17T06:34:28.262Z,100196.42
2022-08-17T06:38:10.709Z,100201.55
2022-08-17T06:43:02.569Z,100203.76
2022-08-17T06:46:04.559Z,100206.52
2022-08-17T06:49:42.157Z,100202.18
2022-08-17T06:53:22.732Z,100198.16
2022-08-17T06:56:55.504Z,100202.94
2022-08-17T07:00:22.618Z,100198.29
2022-08-17T07:03:55.990Z,100201.23
2022-08-17T07:07:43.195Z,100202.73
2022-08-17T07:11:17.576Z,100202.60
2022-08-17T07:14:52.178Z,100204.88
2022-08-17T07:18:19.940Z,100206.52
2022-08-17T07:21:55.288Z,100212.63
2022-08-17T07:25:24.713Z,100213.05
2022-08-17T07:28:56.498Z,100215.98
2022-08-17T07:32:28.317Z,100215.74
2022-08-17T07:35:58.536Z,100222.63
2022-08-17T07:39:30.692Z,100223.69
2022-08-17T07:43:23.307Z,100229.34
2022-08-17T07:47:24.445Z,100224.02
2022-08-17T07:50:53.571Z,100221.74
2022-08-17T07:54:29.290Z,100222.39
2022-08-17T07:58:02.188Z,100227.23
2022-08-17T08:01:28.127Z,100227.49
2022-08-17T08:05:48.837Z,100228.92
2022-08-17T08:09:09.115Z,100232.16
2022-08-17T08:12:45.479Z,100235.24
2022-08-17T08:16:28.435Z,100233.85
2022-08-17T08:19:55.846Z,100234.80
2022-08-17T08:23:35.331Z,100234.25
2022-08-17T08:27:09.682Z,100232.45
2022-08-17T08:30:48.335Z,100230.30
2022-08-17T08:34:53.175Z,100241.55
2022-08-17T08:38:22.644Z,100247.10
2022-08-17T08:42:02.175Z,100251.52
2022-08-17T08:45:38.659Z,100253.50
2022-08-17T08:50:02.742Z,100256.92
2022-08-17T08:53:37.120Z,100257.14
2022-08-17T08:57:25.523Z,100253.17
2022-08-17T09:01:00.812Z,100253.25
2022-08-17T09:05:13.402Z,100253.40
2022-08-17T09:08:55.900Z,100250.17
2022-08-17T09:12:30.105Z,100251.49
2022-08-17T09:16:01.909Z,100251.65
2022-08-17T09:19:38.529Z,100252.35
2022-08-17T09:23:09.109Z,100248.77
2022-08-17T09:26:43.433Z,100246.54
2022-08-17T09:30:15.797Z,100247.66
2022-08-17T09:33:48.582Z,100244.09
2022-08-17T09:37:21.630Z,100239.26
2022-08-17T09:40:54.603Z,100231.25
2022-08-17T09:44:38.131Z,100227.41
2022-08-17T09:48:14.657Z,100228.02
2022-08-17T09:51:50.365Z,100222.58
2022-08-17T09:55:18.916Z,100225.48
2022-08-17T09:59:04.535Z,100227.52
2022-08-17T10:03:16.830Z,100220.83
2022-08-17T10:06:59.572Z,100225.38
2022-08-17T10:10:43.109Z,100229.08
2022-08-17T10:14:37.979Z,100227.59
2022-08-17T10:18:31.801Z,100224.54
2022-08-17T10:22:34.994Z,100223.57
2022-08-17T10:26:15.957Z,100216.30
2022-08-17T10:29:49.922Z,100213.14
2022-08-17T10:33:23.977Z,100210.34
2022-08-17T10:37:47.113Z,100210.58
2022-08-17T10:41:33.904Z,100212.85
2022-08-17T10:45:19.147Z,100212.05
2022-08-17T10:49:06.194Z,100211.44
2022-08-17T10:52:52.233Z,100210.23
2022-08-17T10:56:41.093Z,100210.95
2022-08-17T11:00:28.189Z,100210.05
2022-08-17T11:03:58.671Z,100208.64
2022-08-17T11:07:44.134Z,100208.66
2022-08-17T11:11:43.343Z,100209.83
2022-08-17T11:15:44.031Z,100207.10
2022-08-17T11:19:41.670Z,100205.55
2022-08-17T11:23:34.149Z,100206.41
2022-08-17T11:27:12.227Z,100211.75
2022-08-17T11:30:51.617Z,100210.40
2022-08-17T11:34:23.699Z,100210.83
2022-08-17T11:38:01.081Z,100210.30
2022-08-17T11:41:37.943Z,100209.98
2022-08-17T11:45:31.898Z,100205.02
2022-08-17T11:49:35.208Z,100205.13
2022-08-17T11:53:02.217Z,100197.46
2022-08-17T11:56:44.550Z,100198.90
2022-08-17T12:00:55.106Z,100197.56
2022-08-17T12:04:32.038Z,100198.88
2022-08-17T12:08:12.744Z,100202.28
2022-08-17T12:11:56.359Z,100206.02
2022-08-17T12:15:42.935Z,100205.18
2022-08-17T12:19:23.019Z,100201.33
2022-08-17T12:23:01.480Z,100204.45
2022-08-17T12:26:33.030Z,100200.77
2022-08-17T12:30:01.852Z,100198.00
2022-08-17T12:33:29.173Z,100198.59
2022-08-17T12:37:01.842Z,100196.55
2022-08-17T12:40:32.770Z,100197.77
2022-08-17T12:44:02.999Z,100201.39
2022-08-17T12:47:32.172Z,100200.66
2022-08-17T12:51:05.019Z,100198.16
2022-08-17T12:54:43.652Z,100203.39
2022-08-17T12:58:18.573Z,100204.46
2022-08-17T13:01:47.946Z,100198.39
2022-08-17T13:05:25.542Z,100198.20
2022-08-17T13:08:53.125Z,100190.52
2022-08-17T13:12:29.679Z,100190.01
2022-08-17T13:15:59.876Z,100191.36
2022-08-17T13:19:29.842Z,100188.55
2022-08-17T13:23:12.629Z,100187.39
2022-08-17T13:26:45.878Z,100187.20
2022-08-17T13:30:22.151Z,100185.15
2022-08-17T13:33:49.536Z,100180.05
2022-08-17T13:37:34.556Z,100176.80
2022-08-17T13:41:01.757Z,100180.52
2022-08-17T13:44:41.496Z,100184.41
2022-08-17T13:48:14.891Z,100184.14
2022-08-17T13:51:50.492Z,100182.77
2022-08-17T13:55:24.071Z,100184.90
2022-08-17T13:58:58.489Z,100180.63
2022-08-17T14:02:28.524Z,100180.05
2022-08-17T14:05:58.839Z,100178.81
2022-08-17T14:09:33.562Z,100178.67
2022-08-17T14:13:03.906Z,100176.27
2022-08-17T14:16:31.036Z,100173.55
2022-08-17T14:19:58.743Z,100167.84
2022-08-17T14:23:25.429Z,100167.56
2022-08-17T14:26:53.898Z,100173.95
2022-08-17T14:30:21.578Z,100172.52
2022-08-17T14:33:48.905Z,100170.16
2022-08-17T14:37:15.746Z,100168.98
2022-08-17T14:40:43.315Z,100167.84
2022-08-17T14:44:13.128Z,100170.00
2022-08-17T14:47:42.701Z,100166.70
2022-08-17T14:51:12.157Z,100166.24
2022-08-17T14:54:42.515Z,100166.10
2022-08-17T14:58:13.447Z,100167.78
2022-08-17T15:01:41.480Z,100157.70
2022-08-17T15:05:10.305Z,100157.09
2022-08-17T15:08:38.125Z,100161.30
2022-08-17T15:12:06.788Z,100156.48
2022-08-17T15:15:34.412Z,100157.11
2022-08-17T15:19:01.466Z,100157.88
2022-08-17T15:22:29.852Z,100156.34
2022-08-17T15:25:57.876Z,100149.90
2022-08-17T15:29:25.743Z,100152.29
2022-08-17T15:32:55.149Z,100149.64
2022-08-17T15:36:23.395Z,100144.52
2022-08-17T15:39:50.213Z,100144.63
2022-08-17T15:43:24.842Z,100145.92
2022-08-17T15:46:54.228Z,100146.55
2022-08-17T15:50:21.954Z,100145.63
2022-08-17T15:53:52.494Z,100146.38
2022-08-17T15:57:20.373Z,100149.39
2022-08-17T16:00:52.966Z,100147.45
2022-08-17T16:04:34.386Z,100148.23
2022-08-17T16:08:01.897Z,100148.86
2022-08-17T16:11:29.483Z,100151.48
2022-08-17T16:14:59.035Z,100153.92
2022-08-17T16:18:32.055Z,100148.66
2022-08-17T16:21:59.560Z,100150.58
2022-08-17T16:25:38.290Z,100153.41
2022-08-17T16:29:18.634Z,100153.91
2022-08-17T16:32:45.886Z,100161.31
2022-08-17T16:36:13.266Z,100159.55
2022-08-17T16:39:42.508Z,100159.48
2022-08-17T16:43:12.644Z,100162.84
2022-08-17T16:46:40.631Z,100164.08
2022-08-17T16:50:16.241Z,100168.77
2022-08-17T16:53:44.789Z,100168.02
2022-08-17T16:57:14.353Z,100171.75
2022-08-17T17:00:42.657Z,100181.14
2022-08-17T17:04:19.123Z,100181.69
2022-08-17T17:08:01.153Z,100180.60
2022-08-17T17:11:34.134Z,100179.94
2022-08-17T17:15:01.978Z,100183.73
2022-08-17T17:18:40.644Z,100191.35
2022-08-17T17:22:15.343Z,100190.23
2022-08-17T17:26:01.415Z,100191.13
2022-08-17T17:29:48.125Z,100196.62
2022-08-17T17:33:32.875Z,100204.05
2022-08-17T17:37:11.898Z,100207.16
2022-08-17T17:40:46.605Z,100209.31
2022-08-17T17:44:19.854Z,100211.36
2022-08-17T17:47:48.829Z,100210.21
2022-08-17T17:51:58.156Z,100210.34
2022-08-17T17:55:27.299Z,100211.05
2022-08-17T17:59:03.417Z,100215.95
2022-08-17T18:02:52.765Z,100220.02
2022-08-17T18:06:36.649Z,100222.94
2022-08-17T18:10:19.740Z,100223.58
2022-08-17T18:14:16.067Z,100229.34
2022-08-17T18:18:03.995Z,100246.55
2022-08-17T18:21:39.909Z,100251.61
2022-08-17T18:25:46.424Z,100252.31
2022-08-17T18:29:37.562Z,100258.33
2022-08-17T18:33:25.341Z,100258.70
2022-08-17T18:36:58.239Z,100255.96
2022-08-17T18:40:40.817Z,100251.84
2022-08-17T18:44:30.254Z,100255.05
2022-08-17T18:48:01.235Z,100257.14
2022-08-17T18:51:42.269Z,100258.98
2022-08-17T18:55:15.287Z,100258.23
2022-08-17T18:58:43.734Z,100255.11
2022-08-17T19:02:43.813Z,100256.23
2022-08-17T19:06:24.368Z,100258.54
2022-08-17T19:09:58.957Z,100254.92
2022-08-17T19:13:32.366Z,100258.58
2022-08-17T19:17:05.095Z,100260.31
2022-08-17T19:20:45.131Z,100261.86
2022-08-17T19:24:19.810Z,100265.83
2022-08-17T19:27:57.659Z,100276.27
2022-08-17T19:31:29.621Z,100281.59
2022-08-17T19:35:01.091Z,100280.10
2022-08-17T19:38:42.000Z,100280.77
2022-08-17T19:42:18.215Z,100273.69
2022-08-17T19:45:56.348Z,100271.05
2022-08-17T19:49:40.892Z,100276.48
2022-08-17T19:53:20.253Z,100274.67
2022-08-17T19:56:56.931Z,100276.65
2022-08-17T20:00:24.222Z,100285.02
2022-08-17T20:04:00.313Z,100290.42
2022-08-17T20:07:41.479Z,100292.14
2022-08-17T20:11:12.117Z,100288.51
2022-08-17T20:14:53.612Z,100286.48
2022-08-17T20:18:29.053Z,100284.11
2022-08-17T20:22:00.789Z,100284.34
2022-08-17T20:25:37.593Z,100286.98
2022-08-17T20:29:37.472Z,100285.73
2022-08-17T20:33:23.018Z,100286.55
2022-08-17T20:37:05.351Z,100281.73
2022-08-17T20:40:38.722Z,100277.85
2022-08-17T20:44:08.005Z,100279.36
2022-08-17T20:47:55.165Z,100282.95
2022-08-17T20:51:40.277Z,100285.38
2022-08-17T20:55:08.695Z,100284.20
2022-08-17T20:58:50.969Z,100288.38
2022-08-17T21:02:23.088Z,100290.44
2022-08-17T21:06:17.272Z,100294.40
2022-08-17T21:09:45.952Z,100297.05
2022-08-17T21:17:40.214Z,100302.66
2022-08-17T21:21:20.993Z,100310.95
2022-08-17T21:25:00.299Z,100312.33
2022-08-17T21:29:00.742Z,100311.10
2022-08-17T21:32:35.622Z,100313.11
2022-08-17T21:36:29.937Z,100310.65
2022-08-17T21:39:59.338Z,100311.83
2022-08-17T21:43:32.717Z,100311.75
2022-08-17T21:47:22.237Z,100310.08
2022-08-17T21:51:02.426Z,100306.77
2022-08-17T21:54:36.929Z,100308.23
2022-08-17T21:58:13.928Z,100308.67
2022-08-17T22:01:44.686Z,100308.87
2022-08-17T22:05:30.297Z,100309.96
2022-08-17T22:09:17.845Z,100311.73
2022-08-17T22:13:16.474Z,100308.91
2022-08-17T22:16:44.661Z,100305.63
2022-08-17T22:20:19.042Z,100306.36
2022-08-17T22:24:08.378Z,100300.56
2022-08-17T22:27:51.666Z,100305.65
2022-08-17T22:31:25.588Z,100297.73
2022-08-17T22:35:35.733Z,100295.11
2022-08-17T22:39:24.333Z,100297.19
2022-08-17T22:42:55.038Z,100294.31
2022-08-17T22:46:25.898Z,100292.91
2022-08-17T22:49:58.607Z,100293.02
2022-08-17T22:53:43.825Z,100293.22
2022-08-17T22:57:34.762Z,100297.49
2022-08-17T23:01:26.985Z,100296.77
2022-08-17T23:04:57.615Z,100299.42
2022-08-17T23:08:24.821Z,100298.65
2022-08-17T23:11:58.976Z,100297.42
2022-08-17T23:15:32.968Z,100296.29
2022-08-17T23:19:00.861Z,100296.06
2022-08-17T23:22:31.791Z,100299.89
2022-08-17T23:25:59.237Z,100301.04
2022-08-17T23:29:29.745Z,100299.98
2022-08-17T23:33:00.062Z,100294.55
2022-08-17T23:40:33.880Z,100308.77
2022-08-17T23:44:02.515Z,100314.31
2022-08-17T23:47:29.552Z,100320.07
2022-08-17T23:50:59.406Z,100315.10
2022-08-17T23:54:44.110Z,100314.55
2022-08-17T23:58:11.539Z,100311.50
